sensor_id;sensor_type;location;lat;lon;timestamp;temperature;humidity
40255;DHT22;25973;52.368;4.940;2022-10-13T00:01:25;13.10;99.90
40255;DHT22;25973;52.368;4.940;2022-10-13T00:03:51;13.10;99.90
40255;DHT22;25973;52.368;4.940;2022-10-13T00:06:22;13.10;99.90
40255;DHT22;25973;52.368;4.940;2022-10-13T00:08:48;13.10;99.90
40255;DHT22;25973;52.368;4.940;2022-10-13T00:13:43;13.10;99.90
40255;DHT22;25973;52.368;4.940;2022-10-13T00:16:10;13.10;99.90
40255;DHT22;25973;52.368;4.940;2022-10-13T00:18:36;13.10;99.90
40255;DHT22;25973;52.368;4.940;2022-10-13T00:21:06;13.10;99.90
40255;DHT22;25973;52.368;4.940;2022-10-13T00:23:33;13.10;99.90
40255;DHT22;25973;52.368;4.940;2022-10-13T00:26:05;13.10;99.90
40255;DHT22;25973;52.368;4.940;2022-10-13T00:28:31;13.10;99.90
40255;DHT22;25973;52.368;4.940;2022-10-13T00:30:57;13.10;99.90
40255;DHT22;25973;52.368;4.940;2022-10-13T00:33:23;13.00;99.90
40255;DHT22;25973;52.368;4.940;2022-10-13T00:35:48;13.00;99.90
40255;DHT22;25973;52.368;4.940;2022-10-13T00:38:16;13.10;99.90
40255;DHT22;25973;52.368;4.940;2022-10-13T00:40:50;13.10;99.90
40255;DHT22;25973;52.368;4.940;2022-10-13T00:43:24;13.10;99.90
40255;DHT22;25973;52.368;4.940;2022-10-13T00:45:52;13.10;99.90
40255;DHT22;25973;52.368;4.940;2022-10-13T00:48:27;13.10;99.90
40255;DHT22;25973;52.368;4.940;2022-10-13T00:50:55;13.10;99.90
40255;DHT22;25973;52.368;4.940;2022-10-13T00:53:24;13.10;99.90
40255;DHT22;25973;52.368;4.940;2022-10-13T00:55:55;13.10;99.90
40255;DHT22;25973;52.368;4.940;2022-10-13T00:58:22;13.00;99.90
40255;DHT22;25973;52.368;4.940;2022-10-13T01:00:51;13.00;99.90
40255;DHT22;25973;52.368;4.940;2022-10-13T01:03:19;13.00;99.90
40255;DHT22;25973;52.368;4.940;2022-10-13T01:05:45;13.00;99.90
40255;DHT22;25973;52.368;4.940;2022-10-13T01:08:12;13.00;99.90
40255;DHT22;25973;52.368;4.940;2022-10-13T01:16:18;13.00;99.90
40255;DHT22;25973;52.368;4.940;2022-10-13T01:24:20;13.00;99.90
40255;DHT22;25973;52.368;4.940;2022-10-13T01:30:19;13.00;99.90
40255;DHT22;25973;52.368;4.940;2022-10-13T01:35:19;13.10;99.90
40255;DHT22;25973;52.368;4.940;2022-10-13T01:38:02;13.10;99.90
40255;DHT22;25973;52.368;4.940;2022-10-13T01:40:51;13.10;99.90
40255;DHT22;25973;52.368;4.940;2022-10-13T01:43:28;13.10;99.90
40255;DHT22;25973;52.368;4.940;2022-10-13T01:46:25;13.10;99.90
40255;DHT22;25973;52.368;4.940;2022-10-13T01:48:54;13.10;99.90
40255;DHT22;25973;52.368;4.940;2022-10-13T01:51:34;13.10;99.90
40255;DHT22;25973;52.368;4.940;2022-10-13T01:54:00;13.10;99.90
40255;DHT22;25973;52.368;4.940;2022-10-13T01:56:26;13.10;99.90
40255;DHT22;25973;52.368;4.940;2022-10-13T01:58:52;13.10;99.90
40255;DHT22;25973;52.368;4.940;2022-10-13T02:07:53;13.20;99.90
40255;DHT22;25973;52.368;4.940;2022-10-13T02:12:32;13.20;99.90
40255;DHT22;25973;52.368;4.940;2022-10-13T02:15:00;13.20;99.90
40255;DHT22;25973;52.368;4.940;2022-10-13T02:17:27;13.20;99.90
40255;DHT22;25973;52.368;4.940;2022-10-13T02:19:55;13.20;99.90
40255;DHT22;25973;52.368;4.940;2022-10-13T02:22:24;13.20;99.90
40255;DHT22;25973;52.368;4.940;2022-10-13T02:24:52;13.20;99.90
40255;DHT22;25973;52.368;4.940;2022-10-13T02:27:17;13.20;99.90
40255;DHT22;25973;52.368;4.940;2022-10-13T02:29:54;13.20;99.90
40255;DHT22;25973;52.368;4.940;2022-10-13T02:32:21;13.20;99.90
40255;DHT22;25973;52.368;4.940;2022-10-13T02:34:46;13.20;99.90
40255;DHT22;25973;52.368;4.940;2022-10-13T02:37:12;13.20;99.90
40255;DHT22;25973;52.368;4.940;2022-10-13T02:39:38;13.20;99.90
40255;DHT22;25973;52.368;4.940;2022-10-13T02:42:06;13.20;99.90
40255;DHT22;25973;52.368;4.940;2022-10-13T02:44:32;13.20;99.90
40255;DHT22;25973;52.368;4.940;2022-10-13T02:46:58;13.30;99.90
40255;DHT22;25973;52.368;4.940;2022-10-13T02:49:24;13.30;99.90
40255;DHT22;25973;52.368;4.940;2022-10-13T02:51:49;13.30;99.90
40255;DHT22;25973;52.368;4.940;2022-10-13T02:54:15;13.30;99.90
40255;DHT22;25973;52.368;4.940;2022-10-13T02:56:40;13.30;99.90
40255;DHT22;25973;52.368;4.940;2022-10-13T02:59:06;13.30;99.90
40255;DHT22;25973;52.368;4.940;2022-10-13T03:01:32;13.20;99.90
40255;DHT22;25973;52.368;4.940;2022-10-13T03:03:58;13.20;99.90
40255;DHT22;25973;52.368;4.940;2022-10-13T03:06:23;13.20;99.90
40255;DHT22;25973;52.368;4.940;2022-10-13T03:08:49;13.20;99.90
40255;DHT22;25973;52.368;4.940;2022-10-13T03:11:15;13.20;99.90
40255;DHT22;25973;52.368;4.940;2022-10-13T03:13:40;13.10;99.90
40255;DHT22;25973;52.368;4.940;2022-10-13T03:16:06;13.10;99.90
40255;DHT22;25973;52.368;4.940;2022-10-13T03:18:32;13.10;99.90
40255;DHT22;25973;52.368;4.940;2022-10-13T03:21:01;13.10;99.90
40255;DHT22;25973;52.368;4.940;2022-10-13T03:23:26;13.10;99.90
40255;DHT22;25973;52.368;4.940;2022-10-13T03:25:53;13.10;99.90
40255;DHT22;25973;52.368;4.940;2022-10-13T03:28:19;13.10;99.90
40255;DHT22;25973;52.368;4.940;2022-10-13T03:30:44;13.10;99.90
40255;DHT22;25973;52.368;4.940;2022-10-13T03:33:10;13.10;99.90
40255;DHT22;25973;52.368;4.940;2022-10-13T03:35:36;13.20;99.90
40255;DHT22;25973;52.368;4.940;2022-10-13T03:38:01;13.20;99.90
40255;DHT22;25973;52.368;4.940;2022-10-13T03:40:27;13.20;99.90
40255;DHT22;25973;52.368;4.940;2022-10-13T03:42:55;13.20;99.90
40255;DHT22;25973;52.368;4.940;2022-10-13T03:45:21;13.20;99.90
40255;DHT22;25973;52.368;4.940;2022-10-13T03:47:46;13.20;99.90
40255;DHT22;25973;52.368;4.940;2022-10-13T03:50:12;13.20;99.90
40255;DHT22;25973;52.368;4.940;2022-10-13T03:52:37;13.30;99.90
40255;DHT22;25973;52.368;4.940;2022-10-13T03:55:03;13.30;99.90
40255;DHT22;25973;52.368;4.940;2022-10-13T03:57:29;13.30;99.90
40255;DHT22;25973;52.368;4.940;2022-10-13T03:59:55;13.30;99.90
40255;DHT22;25973;52.368;4.940;2022-10-13T04:02:22;13.30;99.90
40255;DHT22;25973;52.368;4.940;2022-10-13T04:04:47;13.30;99.90
40255;DHT22;25973;52.368;4.940;2022-10-13T04:07:13;13.30;99.90
40255;DHT22;25973;52.368;4.940;2022-10-13T04:09:39;13.30;99.90
40255;DHT22;25973;52.368;4.940;2022-10-13T04:12:04;13.30;99.90
40255;DHT22;25973;52.368;4.940;2022-10-13T04:14:30;13.30;99.90
40255;DHT22;25973;52.368;4.940;2022-10-13T04:16:55;13.30;99.90
40255;DHT22;25973;52.368;4.940;2022-10-13T04:19:21;13.40;99.90
40255;DHT22;25973;52.368;4.940;2022-10-13T04:21:47;13.40;99.90
40255;DHT22;25973;52.368;4.940;2022-10-13T04:24:12;13.40;99.90
40255;DHT22;25973;52.368;4.940;2022-10-13T04:26:39;13.40;99.90
40255;DHT22;25973;52.368;4.940;2022-10-13T04:29:05;13.50;99.90
40255;DHT22;25973;52.368;4.940;2022-10-13T04:31:32;13.50;99.90
40255;DHT22;25973;52.368;4.940;2022-10-13T04:33:57;13.50;99.90
40255;DHT22;25973;52.368;4.940;2022-10-13T04:36:24;13.50;99.90
40255;DHT22;25973;52.368;4.940;2022-10-13T04:38:50;13.50;99.90
40255;DHT22;25973;52.368;4.940;2022-10-13T04:41:19;13.50;99.90
40255;DHT22;25973;52.368;4.940;2022-10-13T04:43:49;13.50;99.90
40255;DHT22;25973;52.368;4.940;2022-10-13T04:46:21;13.50;99.90
40255;DHT22;25973;52.368;4.940;2022-10-13T04:48:47;13.40;99.90
40255;DHT22;25973;52.368;4.940;2022-10-13T04:51:15;13.40;99.90
40255;DHT22;25973;52.368;4.940;2022-10-13T04:53:41;13.40;99.90
40255;DHT22;25973;52.368;4.940;2022-10-13T04:56:12;13.40;99.90
40255;DHT22;25973;52.368;4.940;2022-10-13T04:58:39;13.30;99.90
40255;DHT22;25973;52.368;4.940;2022-10-13T05:01:06;13.30;99.90
40255;DHT22;25973;52.368;4.940;2022-10-13T05:03:35;13.30;99.90
40255;DHT22;25973;52.368;4.940;2022-10-13T05:06:00;13.30;99.90
40255;DHT22;25973;52.368;4.940;2022-10-13T05:08:26;13.30;99.90
40255;DHT22;25973;52.368;4.940;2022-10-13T05:10:56;13.30;99.90
40255;DHT22;25973;52.368;4.940;2022-10-13T05:13:23;13.30;99.90
40255;DHT22;25973;52.368;4.940;2022-10-13T05:15:49;13.20;99.90
40255;DHT22;25973;52.368;4.940;2022-10-13T05:18:14;13.20;99.90
40255;DHT22;25973;52.368;4.940;2022-10-13T05:20:43;13.20;99.90
40255;DHT22;25973;52.368;4.940;2022-10-13T05:23:08;13.20;99.90
40255;DHT22;25973;52.368;4.940;2022-10-13T05:25:35;13.30;99.90
40255;DHT22;25973;52.368;4.940;2022-10-13T05:28:02;13.30;99.90
40255;DHT22;25973;52.368;4.940;2022-10-13T05:30:28;13.30;99.90
40255;DHT22;25973;52.368;4.940;2022-10-13T05:32:54;13.30;99.90
40255;DHT22;25973;52.368;4.940;2022-10-13T05:35:19;13.30;99.90
40255;DHT22;25973;52.368;4.940;2022-10-13T05:37:45;13.40;99.90
40255;DHT22;25973;52.368;4.940;2022-10-13T05:40:13;13.40;99.90
40255;DHT22;25973;52.368;4.940;2022-10-13T05:42:38;13.40;99.90
40255;DHT22;25973;52.368;4.940;2022-10-13T05:45:07;13.40;99.90
40255;DHT22;25973;52.368;4.940;2022-10-13T05:47:33;13.40;99.90
40255;DHT22;25973;52.368;4.940;2022-10-13T05:49:58;13.50;99.90
40255;DHT22;25973;52.368;4.940;2022-10-13T05:52:25;13.50;99.90
40255;DHT22;25973;52.368;4.940;2022-10-13T05:54:54;13.50;99.90
40255;DHT22;25973;52.368;4.940;2022-10-13T05:57:27;13.50;99.90
40255;DHT22;25973;52.368;4.940;2022-10-13T06:00:04;13.60;99.90
40255;DHT22;25973;52.368;4.940;2022-10-13T06:02:38;13.60;99.90
40255;DHT22;25973;52.368;4.940;2022-10-13T06:05:06;13.60;99.90
40255;DHT22;25973;52.368;4.940;2022-10-13T06:07:35;13.60;99.90
40255;DHT22;25973;52.368;4.940;2022-10-13T06:10:01;13.70;99.90
40255;DHT22;25973;52.368;4.940;2022-10-13T06:12:26;13.70;99.90
40255;DHT22;25973;52.368;4.940;2022-10-13T06:14:52;13.70;99.90
40255;DHT22;25973;52.368;4.940;2022-10-13T06:17:17;13.70;99.90
40255;DHT22;25973;52.368;4.940;2022-10-13T06:19:43;13.70;99.90
40255;DHT22;25973;52.368;4.940;2022-10-13T06:22:09;13.70;99.90
40255;DHT22;25973;52.368;4.940;2022-10-13T06:24:35;13.80;99.90
40255;DHT22;25973;52.368;4.940;2022-10-13T06:27:01;13.80;99.90
40255;DHT22;25973;52.368;4.940;2022-10-13T06:29:26;13.90;99.90
40255;DHT22;25973;52.368;4.940;2022-10-13T06:31:52;13.90;99.90
40255;DHT22;25973;52.368;4.940;2022-10-13T06:34:17;13.90;99.90
40255;DHT22;25973;52.368;4.940;2022-10-13T06:36:43;13.90;99.90
40255;DHT22;25973;52.368;4.940;2022-10-13T06:39:08;13.90;99.90
40255;DHT22;25973;52.368;4.940;2022-10-13T06:41:34;13.90;99.90
40255;DHT22;25973;52.368;4.940;2022-10-13T06:44:00;13.90;99.90
40255;DHT22;25973;52.368;4.940;2022-10-13T06:46:25;14.00;99.90
40255;DHT22;25973;52.368;4.940;2022-10-13T06:48:51;14.00;99.90
40255;DHT22;25973;52.368;4.940;2022-10-13T06:51:17;14.00;99.90
40255;DHT22;25973;52.368;4.940;2022-10-13T06:53:42;14.00;99.90
40255;DHT22;25973;52.368;4.940;2022-10-13T06:56:08;14.00;99.90
40255;DHT22;25973;52.368;4.940;2022-10-13T06:58:35;14.10;99.90
40255;DHT22;25973;52.368;4.940;2022-10-13T07:01:00;14.10;99.90
40255;DHT22;25973;52.368;4.940;2022-10-13T07:03:26;14.10;99.90
40255;DHT22;25973;52.368;4.940;2022-10-13T07:05:52;14.10;99.90
40255;DHT22;25973;52.368;4.940;2022-10-13T07:08:17;14.10;99.90
40255;DHT22;25973;52.368;4.940;2022-10-13T07:10:43;14.10;99.90
40255;DHT22;25973;52.368;4.940;2022-10-13T07:13:09;14.20;99.90
40255;DHT22;25973;52.368;4.940;2022-10-13T07:15:38;14.20;99.90
40255;DHT22;25973;52.368;4.940;2022-10-13T07:18:04;14.20;99.90
40255;DHT22;25973;52.368;4.940;2022-10-13T07:20:30;14.20;99.90
40255;DHT22;25973;52.368;4.940;2022-10-13T07:22:55;14.20;99.90
40255;DHT22;25973;52.368;4.940;2022-10-13T07:25:21;14.30;99.90
40255;DHT22;25973;52.368;4.940;2022-10-13T07:27:46;14.20;99.90
40255;DHT22;25973;52.368;4.940;2022-10-13T07:30:12;14.30;99.90
40255;DHT22;25973;52.368;4.940;2022-10-13T07:32:38;14.30;99.90
40255;DHT22;25973;52.368;4.940;2022-10-13T07:35:09;14.30;99.90
40255;DHT22;25973;52.368;4.940;2022-10-13T07:37:36;14.30;99.90
40255;DHT22;25973;52.368;4.940;2022-10-13T07:40:04;14.30;99.90
40255;DHT22;25973;52.368;4.940;2022-10-13T07:42:30;14.30;99.90
40255;DHT22;25973;52.368;4.940;2022-10-13T07:44:55;14.30;99.90
40255;DHT22;25973;52.368;4.940;2022-10-13T07:47:21;14.20;99.90
40255;DHT22;25973;52.368;4.940;2022-10-13T07:49:46;14.20;99.90
40255;DHT22;25973;52.368;4.940;2022-10-13T07:52:12;14.20;99.90
40255;DHT22;25973;52.368;4.940;2022-10-13T07:54:37;14.20;99.90
40255;DHT22;25973;52.368;4.940;2022-10-13T07:57:03;14.20;99.90
40255;DHT22;25973;52.368;4.940;2022-10-13T07:59:31;14.20;99.90
40255;DHT22;25973;52.368;4.940;2022-10-13T08:01:57;14.10;99.90
40255;DHT22;25973;52.368;4.940;2022-10-13T08:04:31;14.20;99.90
40255;DHT22;25973;52.368;4.940;2022-10-13T08:06:56;14.20;99.90
40255;DHT22;25973;52.368;4.940;2022-10-13T08:09:23;14.30;99.90
40255;DHT22;25973;52.368;4.940;2022-10-13T08:11:49;14.30;99.90
40255;DHT22;25973;52.368;4.940;2022-10-13T08:14:15;14.30;99.90
40255;DHT22;25973;52.368;4.940;2022-10-13T08:16:40;14.40;99.90
40255;DHT22;25973;52.368;4.940;2022-10-13T08:19:10;14.40;99.90
40255;DHT22;25973;52.368;4.940;2022-10-13T08:21:36;14.50;99.90
40255;DHT22;25973;52.368;4.940;2022-10-13T08:24:04;14.50;99.90
40255;DHT22;25973;52.368;4.940;2022-10-13T08:26:29;14.60;99.90
40255;DHT22;25973;52.368;4.940;2022-10-13T08:28:55;14.70;99.90
40255;DHT22;25973;52.368;4.940;2022-10-13T08:31:21;14.70;99.90
40255;DHT22;25973;52.368;4.940;2022-10-13T08:33:46;14.70;99.90
40255;DHT22;25973;52.368;4.940;2022-10-13T08:36:13;14.80;99.90
40255;DHT22;25973;52.368;4.940;2022-10-13T08:38:39;14.90;99.90
40255;DHT22;25973;52.368;4.940;2022-10-13T08:41:17;14.90;99.90
40255;DHT22;25973;52.368;4.940;2022-10-13T08:43:48;14.90;99.90
40255;DHT22;25973;52.368;4.940;2022-10-13T08:46:27;15.00;99.90
40255;DHT22;25973;52.368;4.940;2022-10-13T08:48:54;15.00;99.90
40255;DHT22;25973;52.368;4.940;2022-10-13T08:51:20;15.00;99.90
40255;DHT22;25973;52.368;4.940;2022-10-13T08:53:47;15.00;99.90
40255;DHT22;25973;52.368;4.940;2022-10-13T08:56:31;15.10;99.90
40255;DHT22;25973;52.368;4.940;2022-10-13T08:59:02;15.10;99.90
40255;DHT22;25973;52.368;4.940;2022-10-13T09:01:34;15.20;99.90
40255;DHT22;25973;52.368;4.940;2022-10-13T09:06:37;15.20;99.90
40255;DHT22;25973;52.368;4.940;2022-10-13T09:09:06;15.30;99.90
40255;DHT22;25973;52.368;4.940;2022-10-13T09:11:34;15.30;99.90
40255;DHT22;25973;52.368;4.940;2022-10-13T09:14:04;15.30;99.90
40255;DHT22;25973;52.368;4.940;2022-10-13T09:16:40;15.40;99.90
40255;DHT22;25973;52.368;4.940;2022-10-13T09:21:54;15.50;99.90
40255;DHT22;25973;52.368;4.940;2022-10-13T09:24:23;15.50;99.90
40255;DHT22;25973;52.368;4.940;2022-10-13T09:27:02;15.50;99.90
40255;DHT22;25973;52.368;4.940;2022-10-13T09:29:28;15.50;99.90
40255;DHT22;25973;52.368;4.940;2022-10-13T09:32:08;15.60;99.90
40255;DHT22;25973;52.368;4.940;2022-10-13T09:34:37;15.60;99.90
40255;DHT22;25973;52.368;4.940;2022-10-13T09:37:04;15.60;99.90
40255;DHT22;25973;52.368;4.940;2022-10-13T09:39:31;15.60;99.90
40255;DHT22;25973;52.368;4.940;2022-10-13T09:42:20;15.60;99.90
40255;DHT22;25973;52.368;4.940;2022-10-13T09:45:16;15.60;99.90
40255;DHT22;25973;52.368;4.940;2022-10-13T09:47:48;15.50;99.90
40255;DHT22;25973;52.368;4.940;2022-10-13T09:50:21;15.50;99.90
40255;DHT22;25973;52.368;4.940;2022-10-13T09:52:47;15.50;99.90
40255;DHT22;25973;52.368;4.940;2022-10-13T09:55:33;15.50;99.90
40255;DHT22;25973;52.368;4.940;2022-10-13T09:58:05;15.50;99.90
40255;DHT22;25973;52.368;4.940;2022-10-13T10:00:31;15.50;99.90
40255;DHT22;25973;52.368;4.940;2022-10-13T10:06:01;15.50;99.90
40255;DHT22;25973;52.368;4.940;2022-10-13T10:08:41;15.60;99.90
40255;DHT22;25973;52.368;4.940;2022-10-13T10:11:27;15.60;99.90
40255;DHT22;25973;52.368;4.940;2022-10-13T10:13:55;15.60;99.90
40255;DHT22;25973;52.368;4.940;2022-10-13T10:16:37;15.70;99.90
40255;DHT22;25973;52.368;4.940;2022-10-13T10:19:28;15.80;99.90
40255;DHT22;25973;52.368;4.940;2022-10-13T10:22:18;15.90;99.90
40255;DHT22;25973;52.368;4.940;2022-10-13T10:24:51;15.90;99.90
40255;DHT22;25973;52.368;4.940;2022-10-13T10:27:24;15.90;99.90
40255;DHT22;25973;52.368;4.940;2022-10-13T10:30:00;15.80;99.90
40255;DHT22;25973;52.368;4.940;2022-10-13T10:35:10;15.70;99.90
40255;DHT22;25973;52.368;4.940;2022-10-13T10:45:56;15.80;99.90
40255;DHT22;25973;52.368;4.940;2022-10-13T10:48:30;15.80;99.90
40255;DHT22;25973;52.368;4.940;2022-10-13T10:50:57;15.80;99.90
40255;DHT22;25973;52.368;4.940;2022-10-13T10:53:50;15.70;99.90
40255;DHT22;25973;52.368;4.940;2022-10-13T10:56:39;15.70;99.90
40255;DHT22;25973;52.368;4.940;2022-10-13T10:59:24;15.60;99.90
40255;DHT22;25973;52.368;4.940;2022-10-13T11:04:44;15.60;99.90
40255;DHT22;25973;52.368;4.940;2022-10-13T11:17:30;15.60;99.90
40255;DHT22;25973;52.368;4.940;2022-10-13T11:19:56;15.60;99.90
40255;DHT22;25973;52.368;4.940;2022-10-13T11:22:26;15.70;99.90
40255;DHT22;25973;52.368;4.940;2022-10-13T11:27:56;15.80;99.90
40255;DHT22;25973;52.368;4.940;2022-10-13T11:30:43;15.80;99.90
40255;DHT22;25973;52.368;4.940;2022-10-13T11:37:04;15.80;99.90
40255;DHT22;25973;52.368;4.940;2022-10-13T11:44:54;16.00;99.90
40255;DHT22;25973;52.368;4.940;2022-10-13T11:53:21;15.80;99.90
40255;DHT22;25973;52.368;4.940;2022-10-13T11:55:49;15.70;99.90
40255;DHT22;25973;52.368;4.940;2022-10-13T11:58:23;15.70;99.90
40255;DHT22;25973;52.368;4.940;2022-10-13T12:00:57;15.80;99.90
40255;DHT22;25973;52.368;4.940;2022-10-13T12:06:06;15.80;99.90
40255;DHT22;25973;52.368;4.940;2022-10-13T12:08:44;15.70;99.90
40255;DHT22;25973;52.368;4.940;2022-10-13T12:11:23;15.60;99.90
40255;DHT22;25973;52.368;4.940;2022-10-13T12:13:50;15.50;99.90
40255;DHT22;25973;52.368;4.940;2022-10-13T12:16:16;15.40;99.90
40255;DHT22;25973;52.368;4.940;2022-10-13T12:18:42;15.40;99.90
40255;DHT22;25973;52.368;4.940;2022-10-13T12:21:11;15.30;99.90
40255;DHT22;25973;52.368;4.940;2022-10-13T12:23:37;15.30;99.90
40255;DHT22;25973;52.368;4.940;2022-10-13T12:26:04;15.30;99.90
40255;DHT22;25973;52.368;4.940;2022-10-13T12:28:53;15.40;99.90
40255;DHT22;25973;52.368;4.940;2022-10-13T12:31:25;15.40;99.90
40255;DHT22;25973;52.368;4.940;2022-10-13T12:33:56;15.30;99.90
40255;DHT22;25973;52.368;4.940;2022-10-13T12:36:27;15.20;99.90
40255;DHT22;25973;52.368;4.940;2022-10-13T12:38:58;15.20;99.90
40255;DHT22;25973;52.368;4.940;2022-10-13T12:41:31;15.20;99.90
40255;DHT22;25973;52.368;4.940;2022-10-13T12:43:56;15.20;99.90
40255;DHT22;25973;52.368;4.940;2022-10-13T12:46:45;15.20;99.90
40255;DHT22;25973;52.368;4.940;2022-10-13T12:52:14;15.20;99.90
40255;DHT22;25973;52.368;4.940;2022-10-13T12:55:11;15.30;99.90
40255;DHT22;25973;52.368;4.940;2022-10-13T12:57:37;15.40;99.90
40255;DHT22;25973;52.368;4.940;2022-10-13T13:00:25;15.40;99.90
40255;DHT22;25973;52.368;4.940;2022-10-13T13:03:05;15.40;99.90
40255;DHT22;25973;52.368;4.940;2022-10-13T13:05:42;15.50;99.90
40255;DHT22;25973;52.368;4.940;2022-10-13T13:08:28;15.50;99.90
40255;DHT22;25973;52.368;4.940;2022-10-13T13:11:01;15.40;99.90
40255;DHT22;25973;52.368;4.940;2022-10-13T13:13:30;15.30;99.90
40255;DHT22;25973;52.368;4.940;2022-10-13T13:16:19;15.20;99.90
40255;DHT22;25973;52.368;4.940;2022-10-13T13:18:47;15.10;99.90
40255;DHT22;25973;52.368;4.940;2022-10-13T13:21:16;15.00;99.90
40255;DHT22;25973;52.368;4.940;2022-10-13T13:23:46;15.00;99.90
40255;DHT22;25973;52.368;4.940;2022-10-13T13:26:18;15.00;99.90
40255;DHT22;25973;52.368;4.940;2022-10-13T13:28:52;15.00;99.90
40255;DHT22;25973;52.368;4.940;2022-10-13T13:31:21;15.00;99.90
40255;DHT22;25973;52.368;4.940;2022-10-13T13:33:48;15.00;99.90
40255;DHT22;25973;52.368;4.940;2022-10-13T13:36:17;14.90;99.90
40255;DHT22;25973;52.368;4.940;2022-10-13T13:38:43;14.90;99.90
40255;DHT22;25973;52.368;4.940;2022-10-13T13:41:10;14.90;99.90
40255;DHT22;25973;52.368;4.940;2022-10-13T13:43:36;14.80;99.90
40255;DHT22;25973;52.368;4.940;2022-10-13T13:46:03;14.90;99.90
40255;DHT22;25973;52.368;4.940;2022-10-13T13:48:29;14.90;99.90
40255;DHT22;25973;52.368;4.940;2022-10-13T13:50:54;14.90;99.90
40255;DHT22;25973;52.368;4.940;2022-10-13T13:53:20;14.80;99.90
40255;DHT22;25973;52.368;4.940;2022-10-13T13:55:46;14.80;99.90
40255;DHT22;25973;52.368;4.940;2022-10-13T13:58:12;14.80;99.90
40255;DHT22;25973;52.368;4.940;2022-10-13T14:00:37;14.80;99.90
40255;DHT22;25973;52.368;4.940;2022-10-13T14:03:03;14.90;99.90
40255;DHT22;25973;52.368;4.940;2022-10-13T14:05:28;14.90;99.90
40255;DHT22;25973;52.368;4.940;2022-10-13T14:07:55;14.90;99.90
40255;DHT22;25973;52.368;4.940;2022-10-13T14:10:22;15.00;99.90
40255;DHT22;25973;52.368;4.940;2022-10-13T14:12:48;14.90;99.90
40255;DHT22;25973;52.368;4.940;2022-10-13T14:15:14;14.90;99.90
40255;DHT22;25973;52.368;4.940;2022-10-13T14:17:40;14.90;99.90
40255;DHT22;25973;52.368;4.940;2022-10-13T14:20:06;14.80;99.90
40255;DHT22;25973;52.368;4.940;2022-10-13T14:22:32;14.80;99.90
40255;DHT22;25973;52.368;4.940;2022-10-13T14:24:58;14.80;99.90
40255;DHT22;25973;52.368;4.940;2022-10-13T14:27:24;14.80;99.90
40255;DHT22;25973;52.368;4.940;2022-10-13T14:29:49;14.80;99.90
40255;DHT22;25973;52.368;4.940;2022-10-13T14:32:15;14.80;99.90
40255;DHT22;25973;52.368;4.940;2022-10-13T14:34:41;14.70;99.90
40255;DHT22;25973;52.368;4.940;2022-10-13T14:37:06;14.80;99.90
40255;DHT22;25973;52.368;4.940;2022-10-13T14:39:32;14.70;99.90
40255;DHT22;25973;52.368;4.940;2022-10-13T14:41:58;14.70;99.90
40255;DHT22;25973;52.368;4.940;2022-10-13T14:44:23;14.70;99.90
40255;DHT22;25973;52.368;4.940;2022-10-13T14:46:49;14.70;99.90
40255;DHT22;25973;52.368;4.940;2022-10-13T14:49:14;14.70;99.90
40255;DHT22;25973;52.368;4.940;2022-10-13T14:51:40;14.80;99.90
40255;DHT22;25973;52.368;4.940;2022-10-13T14:54:05;14.70;99.90
40255;DHT22;25973;52.368;4.940;2022-10-13T14:56:32;14.70;99.90
40255;DHT22;25973;52.368;4.940;2022-10-13T14:58:59;14.80;99.90
40255;DHT22;25973;52.368;4.940;2022-10-13T15:01:25;14.80;99.90
40255;DHT22;25973;52.368;4.940;2022-10-13T15:03:51;14.80;99.90
40255;DHT22;25973;52.368;4.940;2022-10-13T15:06:19;14.80;99.90
40255;DHT22;25973;52.368;4.940;2022-10-13T15:08:48;14.80;99.90
40255;DHT22;25973;52.368;4.940;2022-10-13T15:11:16;14.80;99.90
40255;DHT22;25973;52.368;4.940;2022-10-13T15:13:42;14.80;99.90
40255;DHT22;25973;52.368;4.940;2022-10-13T15:16:20;14.80;99.90
40255;DHT22;25973;52.368;4.940;2022-10-13T15:18:46;14.80;99.90
40255;DHT22;25973;52.368;4.940;2022-10-13T15:21:12;14.80;99.90
40255;DHT22;25973;52.368;4.940;2022-10-13T15:23:38;14.80;99.90
40255;DHT22;25973;52.368;4.940;2022-10-13T15:26:04;14.80;99.90
40255;DHT22;25973;52.368;4.940;2022-10-13T15:28:42;14.80;99.90
40255;DHT22;25973;52.368;4.940;2022-10-13T15:31:09;14.70;99.90
40255;DHT22;25973;52.368;4.940;2022-10-13T15:33:35;14.70;99.90
40255;DHT22;25973;52.368;4.940;2022-10-13T15:36:01;14.70;99.90
40255;DHT22;25973;52.368;4.940;2022-10-13T15:38:27;14.70;99.90
40255;DHT22;25973;52.368;4.940;2022-10-13T15:41:00;14.70;99.90
40255;DHT22;25973;52.368;4.940;2022-10-13T15:43:26;14.70;99.90
40255;DHT22;25973;52.368;4.940;2022-10-13T15:46:04;14.60;99.90
40255;DHT22;25973;52.368;4.940;2022-10-13T15:48:30;14.60;99.90
40255;DHT22;25973;52.368;4.940;2022-10-13T15:50:56;14.60;99.90
40255;DHT22;25973;52.368;4.940;2022-10-13T15:53:22;14.50;99.90
40255;DHT22;25973;52.368;4.940;2022-10-13T15:55:48;14.50;99.90
40255;DHT22;25973;52.368;4.940;2022-10-13T15:58:14;14.50;99.90
40255;DHT22;25973;52.368;4.940;2022-10-13T16:00:40;14.40;99.90
40255;DHT22;25973;52.368;4.940;2022-10-13T16:03:06;14.40;99.90
40255;DHT22;25973;52.368;4.940;2022-10-13T16:05:32;14.40;99.90
40255;DHT22;25973;52.368;4.940;2022-10-13T16:07:58;14.30;99.90
40255;DHT22;25973;52.368;4.940;2022-10-13T16:10:23;14.30;99.90
40255;DHT22;25973;52.368;4.940;2022-10-13T16:12:49;14.30;99.90
40255;DHT22;25973;52.368;4.940;2022-10-13T16:15:15;14.20;99.90
40255;DHT22;25973;52.368;4.940;2022-10-13T16:17:42;14.20;99.90
40255;DHT22;25973;52.368;4.940;2022-10-13T16:20:10;14.20;99.90
40255;DHT22;25973;52.368;4.940;2022-10-13T16:22:36;14.20;99.90
40255;DHT22;25973;52.368;4.940;2022-10-13T16:25:02;14.10;99.90
40255;DHT22;25973;52.368;4.940;2022-10-13T16:27:28;14.20;99.90
40255;DHT22;25973;52.368;4.940;2022-10-13T16:29:53;14.20;99.90
40255;DHT22;25973;52.368;4.940;2022-10-13T16:32:19;14.20;99.90
40255;DHT22;25973;52.368;4.940;2022-10-13T16:34:46;14.20;99.90
40255;DHT22;25973;52.368;4.940;2022-10-13T16:37:12;14.30;99.90
40255;DHT22;25973;52.368;4.940;2022-10-13T16:39:38;14.30;99.90
40255;DHT22;25973;52.368;4.940;2022-10-13T16:42:03;14.30;99.90
40255;DHT22;25973;52.368;4.940;2022-10-13T16:44:29;14.30;99.90
40255;DHT22;25973;52.368;4.940;2022-10-13T16:46:54;14.40;99.90
40255;DHT22;25973;52.368;4.940;2022-10-13T16:49:21;14.40;99.90
40255;DHT22;25973;52.368;4.940;2022-10-13T16:51:46;14.40;99.90
40255;DHT22;25973;52.368;4.940;2022-10-13T16:54:12;14.40;99.90
40255;DHT22;25973;52.368;4.940;2022-10-13T16:56:37;14.50;99.90
40255;DHT22;25973;52.368;4.940;2022-10-13T16:59:05;14.50;99.90
40255;DHT22;25973;52.368;4.940;2022-10-13T17:01:32;14.50;99.90
40255;DHT22;25973;52.368;4.940;2022-10-13T17:03:58;14.50;99.90